Time;durP1;ratioP1;P1;durP2;ratioP2;P2;SDS_P1;SDS_P2;PMS_P1;PMS_P2;Temp;Humidity;BMP_temperature;BMP_pressure;BME280_temperature;BME280_humidity;BME280_pressure;Samples;Min_cycle;Max_cycle;Signal;HPM_P1;HPM_P2
2021/08/13 00:01:35;;;;;;;16.97;7.95;;;;;;;14.01;82.63;95361.67;1710433;82;21034;-56
2021/08/13 00:04:03;;;;;;;20.57;8.83;;;;;;;13.95;82.83;95368.40;1700188;82;20973;-56
2021/08/13 00:06:30;;;;;;;10.85;7.05;;;;;;;13.89;82.92;95370.22;1718456;82;21128;-56
2021/08/13 00:08:57;;;;;;;8.95;7.28;;;;;;;13.86;83.79;95370.34;1713359;82;21469;-56
2021/08/13 00:11:24;;;;;;;18.80;11.22;;;;;;;13.81;84.26;95366.16;1705111;82;20970;-56
2021/08/13 00:13:51;;;;;;;17.50;10.85;;;;;;;13.76;84.52;95370.12;1679732;83;20966;-55
2021/08/13 00:16:18;;;;;;;20.68;11.63;;;;;;;13.71;84.83;95376.25;1714490;82;21066;-55
2021/08/13 00:18:45;;;;;;;14.00;8.60;;;;;;;13.64;84.95;95366.22;1714801;82;21144;-55
2021/08/13 00:21:13;;;;;;;10.98;7.65;;;;;;;13.59;84.80;95374.34;1725941;82;21071;-55
2021/08/13 00:23:40;;;;;;;9.25;7.05;;;;;;;13.54;84.57;95370.75;1720259;82;21523;-55
2021/08/13 00:26:07;;;;;;;20.37;10.30;;;;;;;13.51;84.40;95369.69;1705139;82;20957;-55
2021/08/13 00:28:34;;;;;;;20.02;10.43;;;;;;;13.50;84.68;95371.50;1705358;81;21494;-55
2021/08/13 00:31:01;;;;;;;17.17;11.20;;;;;;;13.48;84.79;95365.03;1695270;82;21128;-55
2021/08/13 00:33:29;;;;;;;13.32;9.08;;;;;;;13.46;84.81;95376.39;1717014;82;20978;-56
2021/08/13 00:35:57;;;;;;;13.78;8.23;;;;;;;13.45;84.76;95381.14;1700192;82;20969;-55
2021/08/13 00:38:24;;;;;;;12.88;7.58;;;;;;;13.44;84.41;95380.98;1722732;82;20988;-56
2021/08/13 00:40:51;;;;;;;13.70;7.47;;;;;;;13.39;84.27;95379.40;1671931;81;21691;-55
2021/08/13 00:43:19;;;;;;;12.15;7.30;;;;;;;13.35;84.12;95382.91;1714252;82;21131;-55
2021/08/13 00:45:47;;;;;;;10.38;7.70;;;;;;;13.30;84.08;95390.40;1710193;82;21108;-54
2021/08/13 00:48:15;;;;;;;11.90;7.35;;;;;;;13.28;84.16;95390.08;1727369;82;21530;-55
2021/08/13 00:50:44;;;;;;;7.67;6.22;;;;;;;13.22;84.15;95386.33;1712918;82;20993;-55
2021/08/13 00:53:11;;;;;;;10.25;6.95;;;;;;;13.23;84.50;95396.94;1667415;82;20942;-55
2021/08/13 00:55:39;;;;;;;10.28;7.33;;;;;;;13.20;84.87;95393.70;1695302;82;21169;-55
2021/08/13 00:58:08;;;;;;;8.93;6.87;;;;;;;13.19;85.05;95399.66;1709753;82;21395;-55
2021/08/13 01:00:51;;;;;;;9.58;6.25;;;;;;;13.20;85.31;95394.30;1711348;83;21010;-55
2021/08/13 01:03:18;;;;;;;12.35;7.33;;;;;;;13.18;85.09;95393.38;1713393;82;21011;-56
2021/08/13 01:05:47;;;;;;;10.98;8.25;;;;;;;13.14;84.98;95398.86;1717107;82;20947;-55
2021/08/13 01:08:13;;;;;;;11.55;7.65;;;;;;;13.12;85.05;95399.91;1698898;82;21114;-56
2021/08/13 01:10:54;;;;;;;11.33;7.78;;;;;;;13.11;85.07;95402.52;1693862;81;20966;-57
2021/08/13 01:13:51;;;;;;;16.40;8.60;;;;;;;13.08;85.19;95403.42;1710919;82;20970;-55
2021/08/13 01:16:21;;;;;;;14.90;8.03;;;;;;;13.02;85.19;95395.52;1714449;82;21003;-55
2021/08/13 01:19:05;;;;;;;15.40;8.90;;;;;;;12.97;85.28;95398.86;1709720;82;21042;-55
2021/08/13 01:21:44;;;;;;;14.47;9.40;;;;;;;12.85;85.28;95394.88;1714706;82;21805;-56
2021/08/13 01:24:19;;;;;;;24.30;10.45;;;;;;;12.71;85.60;95401.49;1711173;82;20983;-56
2021/08/13 01:26:58;;;;;;;21.62;10.40;;;;;;;12.65;85.73;95401.27;1701372;81;20970;-55
2021/08/13 01:29:59;;;;;;;14.40;8.45;;;;;;;12.61;85.89;95401.22;1711429;82;21477;-54
2021/08/13 01:32:35;;;;;;;16.32;8.85;;;;;;;12.59;85.83;95400.30;1725223;82;21586;-56
2021/08/13 01:35:15;;;;;;;12.80;8.25;;;;;;;12.56;85.86;95393.50;1720363;82;21145;-55
2021/08/13 01:37:46;;;;;;;11.25;7.37;;;;;;;12.52;85.87;95408.03;1702181;82;21691;-54
2021/08/13 01:40:15;;;;;;;11.00;7.45;;;;;;;12.49;85.92;95402.00;1726605;82;21070;-55
2021/08/13 01:42:45;;;;;;;13.43;8.48;;;;;;;12.50;86.06;95408.30;1708977;82;21058;-55
2021/08/13 01:45:25;;;;;;;15.75;8.98;;;;;;;12.52;86.40;95399.75;1712639;82;20950;-55
2021/08/13 01:47:53;;;;;;;10.90;7.40;;;;;;;12.57;86.35;95404.71;1710794;83;21152;-56
2021/08/13 01:50:20;;;;;;;16.15;7.97;;;;;;;12.56;85.97;95403.17;1726432;81;21088;-54
2021/08/13 01:52:50;;;;;;;16.12;8.70;;;;;;;12.55;85.83;95397.48;1714832;82;21576;-54
2021/08/13 01:55:18;;;;;;;13.18;8.00;;;;;;;12.57;85.65;95401.95;1694356;82;21450;-55
2021/08/13 01:57:45;;;;;;;17.23;9.10;;;;;;;12.60;85.46;95402.44;1717993;82;21498;-55
2021/08/13 02:00:19;;;;;;;15.53;8.80;;;;;;;12.60;85.27;95410.72;1718453;83;21132;-56
2021/08/13 02:02:47;;;;;;;12.58;7.78;;;;;;;12.58;85.08;95402.90;1720101;82;21570;-55
2021/08/13 02:05:18;;;;;;;14.83;8.10;;;;;;;12.58;85.06;95401.52;1711824;82;21049;-54
2021/08/13 02:07:47;;;;;;;14.85;8.43;;;;;;;12.57;84.96;95404.71;1711516;82;20963;-56
2021/08/13 02:10:15;;;;;;;16.27;8.68;;;;;;;12.55;85.25;95401.62;1713338;82;21013;-55
2021/08/13 02:12:44;;;;;;;8.35;7.28;;;;;;;12.53;85.38;95399.13;1718180;82;21105;-56
2021/08/13 02:15:12;;;;;;;9.28;7.50;;;;;;;12.48;85.11;95414.25;1715694;82;21061;-56
2021/08/13 02:18:16;;;;;;;12.00;7.03;;;;;;;12.38;84.92;95407.10;1722231;82;21097;-54
2021/08/13 02:20:45;;;;;;;12.07;7.47;;;;;;;12.32;84.96;95405.34;1714658;81;20990;-55
2021/08/13 02:23:12;;;;;;;15.85;9.40;;;;;;;12.29;85.05;95407.60;1713824;82;23024;-56
2021/08/13 02:25:40;;;;;;;16.48;9.28;;;;;;;12.26;85.27;95410.63;1722894;82;21210;-56
2021/08/13 02:28:10;;;;;;;12.15;7.85;;;;;;;12.24;85.58;95415.81;1718300;82;21577;-55
2021/08/13 02:30:39;;;;;;;17.50;8.43;;;;;;;12.21;85.74;95413.95;1704496;82;20962;-56
2021/08/13 02:33:06;;;;;;;16.17;9.20;;;;;;;12.20;85.71;95412.41;1719037;82;20966;-56
2021/08/13 02:35:35;;;;;;;19.75;9.30;;;;;;;12.20;85.98;95411.02;1724777;82;21435;-56
2021/08/13 02:38:13;;;;;;;19.02;8.25;;;;;;;12.18;86.20;95408.53;1719326;82;20962;-56
2021/08/13 02:40:59;;;;;;;12.43;8.50;;;;;;;12.15;86.21;95417.09;1718388;82;21041;-55
2021/08/13 02:43:39;;;;;;;17.98;8.58;;;;;;;12.07;86.20;95417.12;1717424;82;21062;-54
2021/08/13 02:46:06;;;;;;;19.95;8.93;;;;;;;11.96;86.37;95420.05;1708765;82;21041;-55
2021/08/13 02:48:36;;;;;;;15.63;8.50;;;;;;;11.86;86.52;95426.04;1715585;82;21662;-56
2021/08/13 02:51:04;;;;;;;13.75;9.48;;;;;;;11.79;86.60;95419.37;1721988;82;21354;-56
2021/08/13 02:53:42;;;;;;;10.70;8.78;;;;;;;11.77;86.80;95429.27;1720802;82;21012;-54
2021/08/13 02:56:10;;;;;;;19.12;9.05;;;;;;;11.77;87.07;95432.03;1724500;82;20994;-54
2021/08/13 02:58:47;;;;;;;25.32;9.30;;;;;;;11.75;87.06;95432.45;1715006;82;21429;-55
2021/08/13 03:01:23;;;;;;;21.80;9.18;;;;;;;11.70;86.99;95424.73;1720960;82;20933;-56
2021/08/13 03:03:52;;;;;;;18.55;8.40;;;;;;;11.69;87.31;95431.46;1727176;81;21211;-55
2021/08/13 03:06:20;;;;;;;22.48;8.40;;;;;;;11.72;87.36;95434.71;1701555;82;21050;-55
2021/08/13 03:08:48;;;;;;;22.17;8.05;;;;;;;11.74;87.19;95437.80;1718664;82;21101;-53
2021/08/13 03:11:16;;;;;;;17.00;8.43;;;;;;;11.72;87.13;95442.98;1712051;82;21112;-54
2021/08/13 03:13:45;;;;;;;14.65;8.43;;;;;;;11.72;87.09;95437.47;1710867;83;21506;-55
2021/08/13 03:16:14;;;;;;;15.98;8.48;;;;;;;11.75;87.10;95442.73;1713507;82;20986;-55
2021/08/13 03:18:44;;;;;;;16.02;7.50;;;;;;;11.76;87.03;95445.65;1715841;82;20978;-55
2021/08/13 03:21:13;;;;;;;12.40;8.20;;;;;;;11.71;86.78;95440.06;1722180;82;21202;-56
2021/08/13 03:23:40;;;;;;;13.53;7.67;;;;;;;11.62;86.79;95445.45;1711389;82;21073;-56
2021/08/13 03:26:08;;;;;;;17.75;7.72;;;;;;;11.53;86.94;95439.00;1708358;83;21034;-56
2021/08/13 03:28:36;;;;;;;14.15;8.08;;;;;;;11.48;87.24;95433.41;1719299;82;21165;-55
2021/08/13 03:31:03;;;;;;;17.35;7.70;;;;;;;11.48;87.18;95434.79;1712042;82;20943;-55
2021/08/13 03:33:33;;;;;;;16.48;7.55;;;;;;;11.50;87.39;95440.64;1710752;83;21031;-56
2021/08/13 03:36:06;;;;;;;9.40;7.90;;;;;;;11.54;87.60;95445.44;1716325;82;21530;-56
2021/08/13 03:38:32;;;;;;;15.35;7.58;;;;;;;11.56;87.37;95448.55;1707213;82;21221;-55
2021/08/13 03:41:00;;;;;;;13.48;7.65;;;;;;;11.54;87.37;95446.05;1714120;82;21160;-55
2021/08/13 03:43:30;;;;;;;11.45;7.53;;;;;;;11.53;87.31;95442.52;1716087;82;20966;-55
2021/08/13 03:45:57;;;;;;;10.40;7.50;;;;;;;11.54;87.34;95449.57;1715601;82;20994;-55
2021/08/13 03:48:26;;;;;;;14.95;7.40;;;;;;;11.56;87.35;95449.94;1708698;82;21018;-56
2021/08/13 03:50:53;;;;;;;16.30;7.67;;;;;;;11.60;87.17;95453.98;1711914;81;21045;-55
2021/08/13 03:53:21;;;;;;;15.25;7.35;;;;;;;11.59;87.15;95451.84;1712349;82;21175;-55
2021/08/13 03:55:50;;;;;;;9.85;7.45;;;;;;;11.59;87.15;95451.05;1714372;82;20954;-55
2021/08/13 03:58:17;;;;;;;28.05;9.10;;;;;;;11.62;87.33;95457.06;1710892;82;21176;-56
2021/08/13 04:00:44;;;;;;;17.82;8.23;;;;;;;11.63;87.25;95458.02;1715233;82;21078;-56
2021/08/13 04:03:12;;;;;;;13.72;7.37;;;;;;;11.67;87.37;95453.77;1699117;82;21335;-59
2021/08/13 04:05:39;;;;;;;14.28;7.65;;;;;;;11.70;87.15;95452.92;1679390;83;21152;-55
2021/08/13 04:08:07;;;;;;;19.25;7.58;;;;;;;11.68;87.11;95453.34;1684758;83;21096;-55
2021/08/13 04:10:34;;;;;;;13.65;6.92;;;;;;;11.65;87.21;95456.98;1697866;83;21007;-56
2021/08/13 04:13:03;;;;;;;13.38;7.53;;;;;;;11.70;87.26;95458.43;1690630;83;21034;-56
2021/08/13 04:15:33;;;;;;;17.07;7.80;;;;;;;11.73;86.98;95459.69;1685606;82;20943;-56
2021/08/13 04:18:00;;;;;;;9.00;7.25;;;;;;;11.73;87.02;95459.69;1661463;84;21134;-57
2021/08/13 04:20:30;;;;;;;16.35;8.53;;;;;;;11.76;87.07;95456.09;1673552;85;21104;-57
2021/08/13 04:23:00;;;;;;;13.98;7.70;;;;;;;11.78;86.93;95455.63;1680030;84;21018;-55
2021/08/13 04:25:27;;;;;;;16.12;7.10;;;;;;;11.83;87.05;95461.38;1679430;85;21082;-55
2021/08/13 04:27:56;;;;;;;18.05;7.40;;;;;;;11.90;86.89;95455.66;1677081;85;21435;-56
2021/08/13 04:30:24;;;;;;;14.83;8.08;;;;;;;11.93;86.65;95454.02;1678118;84;21093;-56
2021/08/13 04:32:53;;;;;;;16.70;10.30;;;;;;;11.93;86.68;95454.77;1679740;84;21002;-56
2021/08/13 04:35:20;;;;;;;17.50;8.70;;;;;;;11.93;86.56;95457.53;1677469;85;21042;-56
2021/08/13 04:37:49;;;;;;;13.00;7.80;;;;;;;11.94;86.57;95456.31;1676431;85;21573;-56
2021/08/13 04:40:15;;;;;;;12.00;7.65;;;;;;;12.01;86.55;95456.13;1676641;84;21058;-55
2021/08/13 04:42:44;;;;;;;15.05;9.23;;;;;;;12.08;86.37;95461.42;1679783;84;21603;-55
2021/08/13 04:45:11;;;;;;;23.90;10.10;;;;;;;12.15;86.41;95455.72;1676409;85;21002;-54
2021/08/13 04:47:40;;;;;;;20.57;10.23;;;;;;;12.26;86.16;95457.53;1676962;85;20963;-56
2021/08/13 04:50:09;;;;;;;12.15;8.28;;;;;;;12.28;85.94;95464.75;1676633;84;20989;-56
2021/08/13 04:52:47;;;;;;;24.47;8.93;;;;;;;12.31;85.88;95468.63;1654656;84;21439;-57
2021/08/13 04:55:22;;;;;;;16.85;7.67;;;;;;;12.33;85.81;95466.98;1673206;85;21038;-55
2021/08/13 04:57:50;;;;;;;14.33;7.87;;;;;;;12.36;85.86;95463.34;1679617;85;21006;-56
2021/08/13 05:00:19;;;;;;;20.52;8.95;;;;;;;12.45;85.82;95473.72;1678272;85;21168;-55
2021/08/13 05:02:46;;;;;;;21.68;8.15;;;;;;;12.49;85.56;95477.89;1676436;84;21055;-56
2021/08/13 05:05:13;;;;;;;25.48;8.28;;;;;;;12.52;85.47;95473.49;1677508;85;21588;-56
2021/08/13 05:07:40;;;;;;;15.48;9.20;;;;;;;12.57;85.50;95476.48;1676439;85;21216;-56
2021/08/13 05:10:11;;;;;;;25.65;9.53;;;;;;;12.65;85.44;95475.03;1679870;84;21656;-56
2021/08/13 05:12:38;;;;;;;20.50;11.40;;;;;;;12.74;85.24;95475.14;1677467;84;21488;-56
2021/08/13 05:15:08;;;;;;;16.27;10.40;;;;;;;12.84;85.16;95474.02;1677519;84;20982;-57
2021/08/13 05:17:35;;;;;;;21.17;10.70;;;;;;;12.96;85.15;95470.50;1637569;86;21058;-56
2021/08/13 05:20:05;;;;;;;16.10;10.30;;;;;;;13.10;84.72;95472.80;1625932;86;21006;-56
2021/08/13 05:22:34;;;;;;;19.65;11.95;;;;;;;13.22;84.45;95471.98;1679668;84;21046;-56
2021/08/13 05:25:10;;;;;;;17.87;12.78;;;;;;;13.35;84.10;95467.98;1660991;84;21097;-56
2021/08/13 05:27:37;;;;;;;22.58;13.03;;;;;;;13.47;83.86;95463.00;1677559;85;20990;-57
2021/08/13 05:30:07;;;;;;;20.60;13.53;;;;;;;13.58;83.25;95465.39;1682826;85;21001;-57
2021/08/13 05:32:45;;;;;;;16.55;9.83;;;;;;;13.68;82.63;95469.79;1671624;85;21828;-56
2021/08/13 05:35:12;;;;;;;17.77;12.47;;;;;;;13.76;82.08;95467.70;1637721;86;21007;-56
2021/08/13 05:37:42;;;;;;;20.17;12.47;;;;;;;13.84;81.73;95472.38;1636481;86;21022;-59
2021/08/13 05:40:11;;;;;;;23.38;16.42;;;;;;;13.88;81.29;95462.73;1638809;85;21032;-57
2021/08/13 05:42:38;;;;;;;19.15;12.78;;;;;;;13.95;81.27;95460.29;1635436;86;21418;-58
2021/08/13 05:45:08;;;;;;;20.92;12.40;;;;;;;14.05;80.99;95460.52;1656394;85;21134;-56
2021/08/13 05:47:38;;;;;;;14.50;10.18;;;;;;;14.17;80.81;95461.09;1689594;82;21058;-56
2021/08/13 05:50:07;;;;;;;27.82;13.30;;;;;;;14.32;80.39;95451.79;1718314;82;21135;-58
2021/08/13 05:52:34;;;;;;;18.60;11.68;;;;;;;14.42;79.79;95452.00;1723909;81;21040;-56
2021/08/13 05:55:03;;;;;;;18.40;11.70;;;;;;;14.52;79.37;95448.82;1712193;81;20992;-58
2021/08/13 05:57:30;;;;;;;28.65;11.65;;;;;;;14.59;78.92;95454.70;1715092;81;21088;-60
2021/08/13 05:59:57;;;;;;;18.45;11.38;;;;;;;14.65;78.87;95448.71;1729026;81;21023;-56
2021/08/13 06:02:24;;;;;;;21.33;12.93;;;;;;;14.73;78.60;95441.65;1711335;81;21540;-57
2021/08/13 06:04:52;;;;;;;18.32;12.30;;;;;;;14.83;78.35;95439.83;1688549;83;21100;-56
2021/08/13 06:07:19;;;;;;;29.23;13.70;;;;;;;14.93;78.17;95441.41;1721850;81;21109;-55
2021/08/13 06:09:46;;;;;;;23.73;12.60;;;;;;;15.03;77.96;95444.34;1684875;82;21612;-56
2021/08/13 06:12:14;;;;;;;17.62;10.50;;;;;;;15.20;78.00;95431.00;1715776;81;21727;-57
2021/08/13 06:14:41;;;;;;;15.63;9.63;;;;;;;15.40;77.43;95427.95;1723030;81;22363;-57
2021/08/13 06:17:08;;;;;;;26.10;9.83;;;;;;;15.52;76.67;95432.58;1711490;80;21193;-56
2021/08/13 06:19:37;;;;;;;20.12;11.48;;;;;;;15.58;76.45;95426.56;1711735;81;21089;-59
2021/08/13 06:22:07;;;;;;;18.27;9.13;;;;;;;15.67;76.15;95433.51;1720130;81;22050;-61
2021/08/13 06:24:35;;;;;;;24.75;11.80;;;;;;;15.75;75.69;95421.48;1733131;81;21025;-55
2021/08/13 06:27:03;;;;;;;14.05;9.43;;;;;;;15.83;75.67;95430.42;1731931;81;21010;-56
2021/08/13 06:29:30;;;;;;;16.85;10.32;;;;;;;15.96;75.20;95426.86;1710449;81;21116;-58
2021/08/13 06:31:58;;;;;;;16.30;9.08;;;;;;;16.07;74.85;95427.77;1686424;83;21184;-59
2021/08/13 06:34:26;;;;;;;12.93;8.28;;;;;;;16.18;74.69;95424.65;1690348;82;21134;-54
2021/08/13 06:36:53;;;;;;;14.80;7.78;;;;;;;16.33;74.27;95431.09;1672813;83;21465;-59
2021/08/13 06:39:20;;;;;;;9.53;7.50;;;;;;;16.45;73.99;95439.86;1671538;83;21075;-57
2021/08/13 06:41:47;;;;;;;12.68;8.20;;;;;;;16.56;73.70;95434.59;1677864;82;21462;-56
2021/08/13 06:44:16;;;;;;;10.60;7.47;;;;;;;16.68;73.56;95436.37;1666837;83;21058;-60
2021/08/13 06:46:44;;;;;;;19.02;8.90;;;;;;;16.80;73.15;95429.84;1701321;80;21007;-60
2021/08/13 06:49:11;;;;;;;15.03;9.20;;;;;;;16.90;72.96;95431.35;1698059;82;21506;-56
2021/08/13 06:53:11;;;;;;;13.15;8.08;;;;;;;17.20;72.19;95427.45;1735909;78;25761;-63
2021/08/13 06:55:38;;;;;;;17.37;9.90;;;;;;;17.31;71.64;95424.91;1708730;81;21010;-66
2021/08/13 06:58:06;;;;;;;14.58;11.03;;;;;;;17.48;71.27;95437.19;1713485;81;21182;-65
2021/08/13 07:00:35;;;;;;;18.10;9.28;;;;;;;17.63;70.83;95441.55;1692212;83;21070;-68
2021/08/13 07:03:04;;;;;;;16.45;8.13;;;;;;;17.80;70.40;95430.13;1712576;81;21051;-65
2021/08/13 07:05:31;;;;;;;11.78;9.48;;;;;;;17.95;69.90;95428.13;1714935;81;21164;-65
2021/08/13 07:08:00;;;;;;;9.70;7.78;;;;;;;18.10;69.37;95430.31;1699257;82;21101;-64
2021/08/13 07:10:27;;;;;;;10.93;8.18;;;;;;;18.22;68.77;95434.20;1669579;82;21155;-64
2021/08/13 07:12:54;;;;;;;15.98;7.97;;;;;;;18.35;68.13;95429.16;1707969;81;21040;-65
2021/08/13 07:15:22;;;;;;;12.00;7.22;;;;;;;18.46;68.12;95429.97;1712573;81;21084;-66
2021/08/13 07:17:49;;;;;;;9.15;6.80;;;;;;;18.57;67.45;95437.88;1717781;81;21076;-67
2021/08/13 07:20:17;;;;;;;12.23;7.95;;;;;;;18.66;66.52;95439.80;1720772;81;21099;-65
2021/08/13 07:22:45;;;;;;;9.95;6.78;;;;;;;18.73;66.08;95433.20;1717292;81;21108;-64
2021/08/13 07:25:13;;;;;;;10.18;6.95;;;;;;;18.85;64.96;95436.28;1719053;82;21049;-67
2021/08/13 07:27:40;;;;;;;12.55;6.97;;;;;;;18.98;64.69;95438.78;1699598;81;21100;-66
2021/08/13 07:30:10;;;;;;;8.73;7.17;;;;;;;19.09;64.06;95441.11;1709303;81;21506;-65
2021/08/13 07:32:37;;;;;;;15.65;6.97;;;;;;;19.20;63.67;95435.70;1714283;81;21187;-67
2021/08/13 07:35:05;;;;;;;10.43;6.45;;;;;;;19.30;63.67;95436.33;1677000;82;22355;-67
2021/08/13 07:37:34;;;;;;;7.85;6.17;;;;;;;19.42;63.29;95435.24;1699916;81;20954;-66
2021/08/13 07:40:02;;;;;;;10.98;6.05;;;;;;;19.51;63.12;95433.69;1644752;82;21068;-66
2021/08/13 07:42:31;;;;;;;11.28;6.72;;;;;;;19.57;62.67;95431.12;1673550;82;21053;-63
2021/08/13 07:44:59;;;;;;;10.08;6.58;;;;;;;19.68;62.67;95431.27;1694628;82;21107;-62
2021/08/13 07:47:26;;;;;;;10.60;6.55;;;;;;;19.81;62.40;95434.48;1703507;82;21149;-64
2021/08/13 07:49:53;;;;;;;8.35;6.08;;;;;;;19.98;61.89;95429.84;1708950;81;21206;-64
2021/08/13 07:52:20;;;;;;;12.37;6.75;;;;;;;20.13;61.41;95426.33;1723509;81;21081;-66
2021/08/13 07:54:48;;;;;;;9.63;5.85;;;;;;;20.31;61.20;95419.80;1700280;82;21085;-66
2021/08/13 07:57:17;;;;;;;8.18;5.90;;;;;;;20.49;61.17;95415.88;1696865;81;21073;-63
2021/08/13 07:59:44;;;;;;;10.80;6.80;;;;;;;20.66;60.47;95417.56;1708681;81;21225;-65
2021/08/13 08:02:13;;;;;;;10.88;7.30;;;;;;;20.84;59.53;95412.25;1627988;85;21605;-66
2021/08/13 08:04:40;;;;;;;12.75;5.95;;;;;;;20.97;59.21;95416.19;1658707;84;22184;-64
2021/08/13 08:07:10;;;;;;;8.03;6.08;;;;;;;21.12;58.69;95411.82;1653606;84;21393;-64
2021/08/13 08:09:37;;;;;;;8.20;6.10;;;;;;;21.24;58.22;95412.00;1655669;84;21133;-66
2021/08/13 08:12:04;;;;;;;9.10;6.25;;;;;;;21.35;57.63;95410.67;1656158;84;21128;-65
2021/08/13 08:14:31;;;;;;;9.65;5.75;;;;;;;21.42;57.81;95411.59;1661798;84;21109;-66
2021/08/13 08:16:57;;;;;;;7.53;5.80;;;;;;;21.52;57.04;95404.53;1652106;84;21173;-66
2021/08/13 08:19:24;;;;;;;11.60;6.45;;;;;;;21.63;56.57;95412.37;1649075;84;21097;-64
2021/08/13 08:21:51;;;;;;;8.00;5.42;;;;;;;21.77;56.48;95416.23;1650650;84;21589;-64
2021/08/13 08:24:17;;;;;;;7.60;5.75;;;;;;;21.88;55.71;95407.89;1656085;84;21372;-65
2021/08/13 08:26:44;;;;;;;8.40;5.40;;;;;;;22.02;55.49;95408.31;1652407;84;21239;-66
2021/08/13 08:29:11;;;;;;;9.13;5.22;;;;;;;22.12;55.42;95405.53;1659170;84;21471;-70
2021/08/13 08:31:38;;;;;;;6.45;4.87;;;;;;;22.24;54.98;95409.89;1660683;84;21102;-71
2021/08/13 08:34:04;;;;;;;7.55;4.90;;;;;;;22.26;53.88;95401.73;1687336;82;21107;-67
2021/08/13 08:36:31;;;;;;;6.00;4.55;;;;;;;22.19;53.14;95399.45;1705169;82;22113;-72
2021/08/13 08:38:59;;;;;;;9.25;4.97;;;;;;;22.14;53.21;95403.63;1706885;81;21063;-66
2021/08/13 08:41:26;;;;;;;8.28;5.47;;;;;;;22.15;53.11;95394.70;1707245;81;21019;-67
2021/08/13 08:43:52;;;;;;;6.97;5.65;;;;;;;22.24;52.40;95395.09;1714275;82;21103;-65
2021/08/13 08:46:20;;;;;;;8.55;4.90;;;;;;;22.30;52.09;95395.23;1711305;81;21150;-66
2021/08/13 08:48:49;;;;;;;9.13;5.28;;;;;;;22.41;52.20;95395.30;1708069;82;21149;-65
2021/08/13 08:51:17;;;;;;;12.73;5.12;;;;;;;22.53;51.68;95402.45;1714744;81;21090;-65
2021/08/13 08:53:54;;;;;;;8.30;5.08;;;;;;;22.64;51.23;95402.44;1702804;82;21052;-65
2021/08/13 08:56:24;;;;;;;10.98;5.20;;;;;;;22.76;51.77;95402.58;1703100;81;21021;-65
2021/08/13 08:58:50;;;;;;;6.37;4.83;;;;;;;22.87;51.62;95403.96;1709557;82;21148;-66
2021/08/13 09:01:17;;;;;;;9.23;5.67;;;;;;;22.96;50.36;95403.71;1705074;81;21138;-62
2021/08/13 09:03:45;;;;;;;7.30;5.50;;;;;;;23.00;50.49;95395.80;1705783;82;21044;-65
2021/08/13 09:06:14;;;;;;;6.28;4.40;;;;;;;23.11;50.56;95407.05;1702635;81;21441;-68
2021/08/13 09:08:41;;;;;;;6.67;4.05;;;;;;;23.23;50.82;95400.77;1719460;81;21240;-68
2021/08/13 09:11:07;;;;;;;10.38;4.58;;;;;;;23.37;50.13;95400.47;1703736;82;21070;-64
2021/08/13 09:13:38;;;;;;;6.90;5.45;;;;;;;23.49;48.65;95399.80;1712611;81;21407;-65
2021/08/13 09:16:15;;;;;;;5.55;4.62;;;;;;;23.60;48.62;95394.91;1718320;81;21105;-59
2021/08/13 09:18:43;;;;;;;8.05;5.12;;;;;;;23.66;47.82;95395.66;1705106;81;21572;-67
2021/08/13 09:21:10;;;;;;;8.95;4.90;;;;;;;23.71;47.56;95394.87;1718856;81;21049;-63
2021/08/13 09:23:42;;;;;;;7.45;4.85;;;;;;;23.80;48.13;95396.00;1668299;82;21175;-61
2021/08/13 09:26:23;;;;;;;8.23;4.50;;;;;;;23.95;48.04;95399.25;1695164;82;21151;-60
2021/08/13 09:29:12;;;;;;;6.72;4.87;;;;;;;24.08;47.82;95396.02;1695620;81;21041;-62
2021/08/13 09:31:58;;;;;;;7.62;4.40;;;;;;;24.23;47.37;95401.29;1692871;82;21161;-63
2021/08/13 09:34:31;;;;;;;6.90;4.70;;;;;;;24.34;46.50;95392.77;1698230;81;21437;-60
2021/08/13 09:36:58;;;;;;;11.88;4.78;;;;;;;24.42;47.30;95397.97;1706478;81;21072;-60
2021/08/13 09:39:32;;;;;;;6.30;4.62;;;;;;;24.51;45.96;95397.04;1704759;82;21118;-62
2021/08/13 09:42:07;;;;;;;8.43;4.28;;;;;;;24.61;45.21;95397.48;1705188;82;21979;-59
2021/08/13 09:44:38;;;;;;;7.05;4.40;;;;;;;24.67;44.67;95401.00;1685541;82;21137;-61
2021/08/13 09:47:10;;;;;;;8.15;4.40;;;;;;;24.71;45.66;95401.48;1710551;81;21472;-58
2021/08/13 09:49:41;;;;;;;8.13;4.58;;;;;;;24.72;46.02;95395.34;1699029;82;21158;-62
2021/08/13 09:52:13;;;;;;;7.33;4.58;;;;;;;24.82;45.75;95400.00;1708724;81;21135;-57
2021/08/13 09:54:40;;;;;;;5.28;3.90;;;;;;;24.93;44.67;95411.17;1708615;81;21172;-61
2021/08/13 09:57:08;;;;;;;4.83;4.03;;;;;;;25.06;44.82;95415.52;1717245;81;21054;-59
2021/08/13 09:59:35;;;;;;;9.13;4.25;;;;;;;25.13;42.55;95404.45;1706900;81;21809;-62
2021/08/13 10:02:13;;;;;;;10.80;4.10;;;;;;;25.16;41.91;95406.87;1707668;81;21048;-60
2021/08/13 10:04:41;;;;;;;4.85;4.10;;;;;;;25.21;41.01;95398.39;1691580;82;22101;-61
2021/08/13 10:07:17;;;;;;;7.75;4.12;;;;;;;25.26;40.24;95395.38;1691078;81;21614;-62
2021/08/13 10:09:39;;;;;;;4.67;3.90;;;;;;;25.32;40.78;95401.75;1691041;82;21090;-62
2021/08/13 10:12:08;;;;;;;32.53;14.53;;;;;;;25.47;41.06;95397.22;1704810;81;21105;-59
2021/08/13 10:14:40;;;;;;;10.98;6.05;;;;;;;25.70;40.50;95401.97;1695726;81;20992;-60
2021/08/13 10:17:17;;;;;;;26.17;12.18;;;;;;;25.98;39.11;95399.70;1682066;82;21147;-61
2021/08/13 10:19:49;;;;;;;10.53;5.65;;;;;;;26.31;39.32;95408.39;1691202;82;21172;-61
2021/08/13 10:22:20;;;;;;;4.72;4.00;;;;;;;26.67;37.90;95403.38;1706869;81;21881;-61
2021/08/13 10:24:48;;;;;;;6.42;4.55;;;;;;;26.86;37.04;95405.52;1698449;82;21488;-59
2021/08/13 10:27:17;;;;;;;11.75;6.65;;;;;;;26.97;36.67;95402.52;1718320;81;22086;-59
2021/08/13 10:29:47;;;;;;;8.35;4.78;;;;;;;27.15;37.54;95402.36;1694964;82;21843;-60
2021/08/13 10:32:20;;;;;;;17.42;4.90;;;;;;;27.39;36.87;95402.95;1700182;82;21577;-59
2021/08/13 10:34:47;;;;;;;15.32;6.00;;;;;;;27.58;36.71;95403.63;1711833;82;21167;-61
2021/08/13 10:37:14;;;;;;;5.85;4.42;;;;;;;27.76;36.58;95402.79;1691417;82;21558;-60
2021/08/13 10:39:45;;;;;;;7.35;4.25;;;;;;;27.97;36.81;95399.41;1698455;82;21306;-61
2021/08/13 10:42:17;;;;;;;5.47;3.70;;;;;;;28.20;35.64;95394.16;1681959;82;21067;-63
2021/08/13 10:44:49;;;;;;;5.37;3.43;;;;;;;28.38;34.35;95395.36;1700872;81;21041;-62
2021/08/13 10:47:21;;;;;;;7.50;4.05;;;;;;;28.47;33.41;95390.63;1658605;82;21555;-63
2021/08/13 10:49:48;;;;;;;5.65;3.45;;;;;;;28.48;33.68;95394.98;1707462;82;21043;-62
2021/08/13 10:52:15;;;;;;;10.65;4.22;;;;;;;28.54;33.10;95394.19;1690854;82;21525;-62
2021/08/13 10:54:45;;;;;;;4.70;3.70;;;;;;;28.63;32.65;95388.08;1667887;83;21133;-60
2021/08/13 10:57:14;;;;;;;5.70;3.55;;;;;;;28.74;33.28;95389.24;1700692;81;21058;-60
2021/08/13 10:59:47;;;;;;;5.62;4.03;;;;;;;29.11;31.96;95386.04;1705668;82;21117;-61
2021/08/13 11:02:17;;;;;;;6.10;3.25;;;;;;;29.33;31.11;95384.05;1691604;82;21083;-61
2021/08/13 11:04:47;;;;;;;5.85;3.47;;;;;;;29.58;31.50;95383.14;1696114;82;21146;-62
2021/08/13 11:07:16;;;;;;;5.80;2.83;;;;;;;29.92;30.21;95382.31;1710084;81;21144;-62
2021/08/13 11:09:42;;;;;;;6.25;3.35;;;;;;;30.17;29.05;95384.83;1693737;82;21061;-61
2021/08/13 11:12:14;;;;;;;5.35;3.60;;;;;;;30.30;29.37;95379.77;1703684;81;21130;-60
2021/08/13 11:14:54;;;;;;;4.97;3.45;;;;;;;30.49;29.31;95385.90;1699694;82;21150;-61
2021/08/13 11:17:43;;;;;;;8.43;3.70;;;;;;;30.79;29.45;95373.88;1698051;81;21640;-67
2021/08/13 11:20:14;;;;;;;4.25;3.52;;;;;;;31.16;29.26;95373.98;1698159;82;20986;-65
2021/08/13 11:22:43;;;;;;;5.92;3.87;;;;;;;31.68;28.74;95371.04;1712663;82;21180;-58
2021/08/13 11:25:12;;;;;;;5.47;3.72;;;;;;;31.97;27.79;95364.52;1698117;81;21053;-61
2021/08/13 11:27:39;;;;;;;5.33;3.55;;;;;;;31.97;27.25;95367.37;1695444;82;21211;-65
2021/08/13 11:30:40;;;;;;;4.45;3.22;;;;;;;31.90;27.46;95361.78;1697609;81;21125;-62
2021/08/13 11:33:36;;;;;;;6.08;3.72;;;;;;;32.02;27.60;95359.30;1689997;82;21195;-60
2021/08/13 11:36:04;;;;;;;4.45;3.55;;;;;;;32.32;27.39;95357.78;1699355;81;20990;-61
2021/08/13 11:38:50;;;;;;;9.38;3.00;;;;;;;32.75;27.47;95352.47;1637929;86;21039;-63
2021/08/13 11:41:24;;;;;;;5.80;3.35;;;;;;;33.08;26.88;95351.77;1650723;84;21069;-62